Time;durP1;ratioP1;P1;durP2;ratioP2;P2;SDS_P1;SDS_P2;PMS_P1;PMS_P2;Temp;Humidity;BMP_temperature;BMP_pressure;BME280_temperature;BME280_humidity;BME280_pressure;Samples;Min_cycle;Max_cycle;Signal;HPM_P1;HPM_P2
2022/10/23 00:00:09;;;;;;;5.82;4.35;;;11.60;99.90;;;;;;5010875;28;20220;-74
2022/10/23 00:02:35;;;;;;;5.82;4.32;;;11.60;99.90;;;;;;5010889;28;20394;-75
2022/10/23 00:05:00;;;;;;;4.60;3.90;;;11.60;99.90;;;;;;5010724;28;20038;-74
2022/10/23 00:07:26;;;;;;;6.35;3.90;;;11.50;99.90;;;;;;5010943;28;20037;-74
2022/10/23 00:09:52;;;;;;;7.57;4.53;;;11.50;99.90;;;;;;5010720;28;20050;-74
2022/10/23 00:12:17;;;;;;;5.15;4.00;;;11.50;99.90;;;;;;5010845;28;20125;-74
2022/10/23 00:14:43;;;;;;;8.07;4.80;;;11.60;99.90;;;;;;5011336;28;20563;-74
2022/10/23 00:17:11;;;;;;;4.45;3.70;;;11.50;99.90;;;;;;4993236;28;20501;-74
2022/10/23 00:19:36;;;;;;;3.97;3.47;;;11.60;99.90;;;;;;4980170;28;20483;-74
2022/10/23 00:22:02;;;;;;;6.35;4.00;;;11.60;99.90;;;;;;5011340;28;20046;-74
2022/10/23 00:24:28;;;;;;;6.63;4.28;;;11.60;99.90;;;;;;5010694;28;20222;-74
2022/10/23 00:26:53;;;;;;;6.82;4.80;;;11.60;99.90;;;;;;4993623;28;20085;-74
2022/10/23 00:29:19;;;;;;;4.53;3.78;;;11.60;99.90;;;;;;4992794;28;20065;-74
2022/10/23 00:31:45;;;;;;;4.35;3.45;;;11.60;99.90;;;;;;4993680;28;20045;-74
2022/10/23 00:34:11;;;;;;;4.70;3.75;;;11.60;99.90;;;;;;5015039;28;20141;-74
2022/10/23 00:36:37;;;;;;;4.85;3.83;;;11.60;99.90;;;;;;5014602;28;20089;-74
2022/10/23 00:39:03;;;;;;;6.80;4.68;;;11.50;99.90;;;;;;5014741;28;20418;-74
2022/10/23 00:41:31;;;;;;;6.50;4.70;;;11.60;99.90;;;;;;4997378;28;20298;-74
2022/10/23 00:44:16;;;;;;;5.55;4.57;;;11.60;99.90;;;;;;5014371;28;20082;-74
2022/10/23 00:46:43;;;;;;;7.17;4.70;;;11.60;99.90;;;;;;4996786;28;20494;-74
2022/10/23 00:49:09;;;;;;;8.43;4.93;;;11.60;99.90;;;;;;4993909;28;20296;-74
2022/10/23 00:51:45;;;;;;;8.00;4.93;;;11.60;99.90;;;;;;4976107;28;20046;-74
2022/10/23 00:54:12;;;;;;;7.13;5.32;;;11.60;99.90;;;;;;5008260;28;20041;-75
2022/10/23 00:56:40;;;;;;;8.10;4.90;;;11.60;99.90;;;;;;5014461;28;20103;-74
2022/10/23 00:59:07;;;;;;;7.45;5.28;;;11.60;99.90;;;;;;4996965;28;20466;-74
2022/10/23 01:01:33;;;;;;;6.32;5.38;;;11.60;99.90;;;;;;5013549;28;20042;-75
2022/10/23 01:03:59;;;;;;;9.35;5.55;;;11.70;99.90;;;;;;5013939;28;20457;-75
2022/10/23 01:06:25;;;;;;;7.15;4.85;;;11.70;99.90;;;;;;5012924;28;20050;-75
2022/10/23 01:09:03;;;;;;;8.63;5.55;;;11.80;99.90;;;;;;5013924;28;20071;-75
2022/10/23 01:11:53;;;;;;;9.07;5.50;;;11.80;99.90;;;;;;5014111;28;20056;-75
2022/10/23 01:14:34;;;;;;;7.93;5.30;;;11.90;99.90;;;;;;5014160;28;20049;-75
2022/10/23 01:17:06;;;;;;;7.88;5.80;;;12.00;99.90;;;;;;5014280;28;20052;-75
2022/10/23 01:19:43;;;;;;;8.32;5.25;;;12.00;99.90;;;;;;5013739;28;20050;-75
2022/10/23 01:22:09;;;;;;;7.07;5.55;;;11.90;99.90;;;;;;5014169;28;20073;-75
2022/10/23 01:24:41;;;;;;;7.97;5.07;;;12.00;99.90;;;;;;5013840;28;20089;-74
2022/10/23 01:27:24;;;;;;;8.20;5.47;;;12.00;99.90;;;;;;5014134;28;20045;-74
2022/10/23 01:30:08;;;;;;;8.07;5.10;;;12.00;99.90;;;;;;5013418;28;20065;-75
2022/10/23 01:32:55;;;;;;;7.75;5.00;;;12.00;99.90;;;;;;5013545;28;20086;-75
2022/10/23 01:35:28;;;;;;;7.85;5.78;;;11.90;99.90;;;;;;5013237;28;20506;-75
2022/10/23 01:38:12;;;;;;;7.63;5.00;;;11.90;99.90;;;;;;5013897;28;20375;-73
2022/10/23 01:40:53;;;;;;;7.50;5.03;;;11.90;99.90;;;;;;5013806;28;20133;-73
2022/10/23 01:43:29;;;;;;;8.32;5.05;;;11.90;99.90;;;;;;5012560;28;20089;-73
2022/10/23 01:45:59;;;;;;;8.65;5.15;;;11.80;99.90;;;;;;5013753;28;20088;-74
2022/10/23 01:48:28;;;;;;;6.05;4.63;;;11.70;99.90;;;;;;4996174;28;20451;-74
2022/10/23 01:50:58;;;;;;;5.93;4.55;;;11.80;99.90;;;;;;4996300;28;20045;-73
2022/10/23 01:53:26;;;;;;;7.55;4.95;;;11.60;99.90;;;;;;5013494;28;20423;-73
2022/10/23 01:55:54;;;;;;;5.93;4.47;;;11.60;99.90;;;;;;5013660;28;20410;-73
2022/10/23 01:58:21;;;;;;;8.40;4.50;;;11.60;99.90;;;;;;5013579;28;20061;-73
2022/10/23 02:00:49;;;;;;;7.45;5.20;;;11.50;99.90;;;;;;5012784;28;20050;-74
2022/10/23 02:03:17;;;;;;;6.43;4.32;;;11.50;99.90;;;;;;5012899;28;20842;-74
2022/10/23 02:05:44;;;;;;;5.82;4.10;;;11.40;99.90;;;;;;5013426;28;20053;-74
2022/10/23 02:08:10;;;;;;;5.93;4.40;;;11.40;99.90;;;;;;4995874;28;20050;-74
2022/10/23 02:11:06;;;;;;;5.45;4.20;;;11.30;99.90;;;;;;5013223;28;20042;-73
2022/10/23 02:13:34;;;;;;;5.50;3.97;;;11.30;99.90;;;;;;5004020;28;20041;-74
2022/10/23 02:16:05;;;;;;;4.75;3.38;;;11.20;99.90;;;;;;5012723;28;20512;-74
2022/10/23 02:18:50;;;;;;;4.53;3.67;;;11.10;99.90;;;;;;5012816;28;20050;-74
2022/10/23 02:21:43;;;;;;;4.30;3.47;;;11.10;99.90;;;;;;4992605;28;20046;-74
2022/10/23 02:24:14;;;;;;;4.97;3.50;;;11.10;99.90;;;;;;5005944;28;20521;-74
2022/10/23 02:26:52;;;;;;;4.40;3.58;;;11.00;99.90;;;;;;5012992;28;20092;-74
2022/10/23 02:29:32;;;;;;;6.57;4.10;;;11.00;99.90;;;;;;5012939;28;20061;-73
2022/10/23 02:31:58;;;;;;;5.05;4.00;;;11.00;99.90;;;;;;5012433;28;20112;-74
2022/10/23 02:34:24;;;;;;;5.05;4.18;;;10.90;99.90;;;;;;5012733;28;20053;-74
2022/10/23 02:36:50;;;;;;;5.10;3.92;;;11.00;99.90;;;;;;5012633;28;20125;-73
2022/10/23 02:39:15;;;;;;;5.13;3.60;;;11.00;99.90;;;;;;5012735;28;20046;-74
2022/10/23 02:41:54;;;;;;;5.15;3.65;;;11.00;99.90;;;;;;5012212;28;20103;-74
2022/10/23 02:44:36;;;;;;;7.43;5.03;;;10.90;99.90;;;;;;5012590;28;20042;-74
2022/10/23 02:47:18;;;;;;;10.82;4.75;;;10.90;99.90;;;;;;5012895;28;20045;-73
2022/10/23 02:49:59;;;;;;;6.00;3.85;;;10.90;99.90;;;;;;5005635;28;20112;-74
2022/10/23 02:52:44;;;;;;;5.53;3.83;;;10.90;99.90;;;;;;5012565;28;20100;-74
2022/10/23 02:55:15;;;;;;;7.85;3.80;;;10.80;99.90;;;;;;5001145;28;20491;-74
2022/10/23 02:58:04;;;;;;;5.10;3.42;;;10.80;99.90;;;;;;5016066;28;20505;-74
2022/10/23 03:00:32;;;;;;;15.60;3.22;;;10.70;99.90;;;;;;5002922;28;20395;-74
2022/10/23 03:03:10;;;;;;;8.18;3.28;;;10.60;99.90;;;;;;5012192;28;20050;-74
2022/10/23 03:05:39;;;;;;;7.72;3.00;;;10.60;99.90;;;;;;5012098;28;20041;-74
2022/10/23 03:08:08;;;;;;;3.88;2.70;;;10.50;99.90;;;;;;5012216;28;20050;-74
2022/10/23 03:10:34;;;;;;;10.45;2.75;;;10.40;99.90;;;;;;5012435;28;20053;-74
2022/10/23 03:12:59;;;;;;;11.27;3.22;;;10.30;99.90;;;;;;5011461;28;20125;-74
2022/10/23 03:15:25;;;;;;;5.03;2.95;;;10.40;99.90;;;;;;5020172;28;20099;-74
2022/10/23 03:17:50;;;;;;;4.30;2.80;;;10.30;99.90;;;;;;5011789;28;20458;-74
2022/10/23 03:20:16;;;;;;;8.05;3.00;;;10.20;99.90;;;;;;5011794;28;20556;-74
2022/10/23 03:22:42;;;;;;;4.93;2.65;;;10.30;99.90;;;;;;4991169;28;20395;-74
2022/10/23 03:25:09;;;;;;;5.03;2.92;;;10.20;99.90;;;;;;4994950;28;20050;-74
2022/10/23 03:27:34;;;;;;;6.10;3.47;;;10.20;99.90;;;;;;5012123;28;20049;-74
2022/10/23 03:30:01;;;;;;;9.70;3.30;;;10.30;99.90;;;;;;4990221;28;20050;-74
2022/10/23 03:32:26;;;;;;;5.00;3.22;;;10.30;99.90;;;;;;4990820;28;20042;-74
2022/10/23 03:34:52;;;;;;;4.30;2.95;;;10.30;99.90;;;;;;4990363;28;20129;-74
2022/10/23 03:37:18;;;;;;;5.22;3.53;;;10.30;99.90;;;;;;4989192;28;20467;-74
2022/10/23 03:39:44;;;;;;;9.52;3.83;;;10.40;99.90;;;;;;4990334;28;20058;-74
2022/10/23 03:42:09;;;;;;;7.13;3.65;;;10.50;99.90;;;;;;4991421;28;20491;-74
2022/10/23 03:44:35;;;;;;;20.48;4.25;;;10.40;99.90;;;;;;5006992;28;20545;-74
2022/10/23 03:47:01;;;;;;;5.75;3.30;;;10.50;99.90;;;;;;4992041;28;20054;-74
2022/10/23 03:49:26;;;;;;;13.15;4.60;;;10.50;99.90;;;;;;4990635;28;20057;-74
2022/10/23 03:51:52;;;;;;;10.95;3.80;;;10.50;99.90;;;;;;4991944;28;20050;-74
2022/10/23 03:54:26;;;;;;;17.45;4.22;;;10.50;99.90;;;;;;4991934;28;20108;-74
2022/10/23 03:56:53;;;;;;;14.02;3.90;;;10.50;99.90;;;;;;4991487;28;20042;-74
2022/10/23 03:59:18;;;;;;;6.80;3.33;;;10.50;99.90;;;;;;4998985;28;20365;-74
2022/10/23 04:01:45;;;;;;;5.32;3.33;;;10.50;99.90;;;;;;4990930;28;20101;-74
2022/10/23 04:04:11;;;;;;;5.78;3.75;;;10.50;99.90;;;;;;4991761;28;20046;-73
2022/10/23 04:06:36;;;;;;;7.30;3.70;;;10.50;99.90;;;;;;4991325;28;20059;-74
2022/10/23 04:09:03;;;;;;;5.38;3.28;;;10.50;99.90;;;;;;4990584;28;20058;-74
2022/10/23 04:11:28;;;;;;;5.45;3.72;;;10.50;99.90;;;;;;4990648;28;20412;-74
2022/10/23 04:13:54;;;;;;;5.10;3.90;;;10.50;99.90;;;;;;4994287;28;20053;-74
2022/10/23 04:16:20;;;;;;;11.02;5.07;;;10.50;99.90;;;;;;4991670;28;20148;-74
2022/10/23 04:18:45;;;;;;;7.53;4.05;;;10.70;99.90;;;;;;4989947;28;20054;-73
2022/10/23 04:21:11;;;;;;;5.97;3.78;;;10.50;99.90;;;;;;4990838;28;20042;-73
2022/10/23 04:23:37;;;;;;;9.15;3.78;;;10.50;99.90;;;;;;5006802;28;20137;-73
2022/10/23 04:26:03;;;;;;;5.95;3.67;;;10.50;99.90;;;;;;4991094;28;20050;-73
2022/10/23 04:28:28;;;;;;;6.18;3.85;;;10.50;99.90;;;;;;4994398;28;20054;-73
2022/10/23 04:30:54;;;;;;;5.07;3.67;;;10.50;99.90;;;;;;5010341;28;20053;-73
2022/10/23 04:33:20;;;;;;;5.40;3.55;;;10.40;99.90;;;;;;5010327;28;20100;-73
2022/10/23 04:35:45;;;;;;;6.43;4.07;;;10.40;99.90;;;;;;5011014;28;20046;-73
2022/10/23 04:38:11;;;;;;;6.53;4.20;;;10.40;99.90;;;;;;5009822;28;20076;-73
2022/10/23 04:40:37;;;;;;;6.00;4.47;;;10.40;99.90;;;;;;4991697;28;20058;-74
2022/10/23 04:43:03;;;;;;;8.23;4.40;;;10.40;99.90;;;;;;5011239;28;20052;-74
2022/10/23 04:45:29;;;;;;;7.22;4.78;;;10.50;99.90;;;;;;5010953;28;20060;-74
2022/10/23 04:47:55;;;;;;;8.05;5.03;;;10.50;99.90;;;;;;5010966;28;20038;-74
2022/10/23 04:50:21;;;;;;;7.18;4.95;;;10.50;99.90;;;;;;5010868;28;20124;-74
2022/10/23 04:52:47;;;;;;;7.93;5.30;;;10.60;99.90;;;;;;5011031;28;20049;-74
2022/10/23 04:55:13;;;;;;;12.52;5.65;;;10.60;99.90;;;;;;5010760;28;20057;-74
2022/10/23 04:57:39;;;;;;;8.45;5.10;;;10.60;99.90;;;;;;4993093;28;20042;-73
2022/10/23 05:00:09;;;;;;;8.70;5.20;;;10.60;99.90;;;;;;4992700;28;20078;-74
2022/10/23 05:02:35;;;;;;;8.40;5.38;;;10.60;99.90;;;;;;5010873;28;20084;-74
2022/10/23 05:05:00;;;;;;;7.35;4.65;;;10.70;99.90;;;;;;5010837;28;20073;-73
2022/10/23 05:07:26;;;;;;;8.77;5.35;;;10.70;99.90;;;;;;5010865;28;20046;-74
2022/10/23 05:09:52;;;;;;;7.68;5.35;;;10.80;99.90;;;;;;5010634;28;20069;-74
2022/10/23 05:12:18;;;;;;;8.02;5.40;;;11.00;99.90;;;;;;5010872;28;20046;-74
2022/10/23 05:14:44;;;;;;;6.45;5.10;;;10.70;99.90;;;;;;5011192;28;20575;-74
2022/10/23 05:17:27;;;;;;;5.30;4.40;;;10.70;99.90;;;;;;5010151;28;20045;-74
2022/10/23 05:19:55;;;;;;;6.35;4.25;;;10.70;99.90;;;;;;5004327;28;20407;-74
2022/10/23 05:22:25;;;;;;;6.97;4.25;;;10.50;99.90;;;;;;5014110;28;20054;-74
2022/10/23 05:24:51;;;;;;;6.97;4.30;;;10.50;99.90;;;;;;5014112;28;20050;-74
2022/10/23 05:27:16;;;;;;;6.63;4.38;;;10.50;99.90;;;;;;5013637;28;20054;-74
2022/10/23 05:29:42;;;;;;;6.13;4.10;;;10.70;99.90;;;;;;4992771;28;20085;-74
2022/10/23 05:32:11;;;;;;;5.97;4.00;;;10.40;99.90;;;;;;4993772;28;20487;-74
2022/10/23 05:34:37;;;;;;;5.82;3.60;;;10.40;99.90;;;;;;4994255;28;20054;-73
2022/10/23 05:37:06;;;;;;;6.82;3.88;;;10.30;99.90;;;;;;4994181;28;20074;-74
2022/10/23 05:39:32;;;;;;;6.28;4.60;;;10.30;99.90;;;;;;4993149;28;20561;-74
2022/10/23 05:41:59;;;;;;;5.72;3.95;;;10.30;99.90;;;;;;4994239;28;20081;-74
2022/10/23 05:44:24;;;;;;;5.90;4.05;;;10.30;99.90;;;;;;4994064;28;20364;-74
2022/10/23 05:46:50;;;;;;;8.60;4.40;;;10.20;99.90;;;;;;4993064;28;20056;-74
2022/10/23 05:49:16;;;;;;;7.55;4.70;;;10.20;99.90;;;;;;4993795;28;20043;-74
2022/10/23 05:51:41;;;;;;;8.30;4.82;;;10.20;99.90;;;;;;4992787;28;20504;-74
2022/10/23 05:54:08;;;;;;;9.93;4.80;;;10.10;99.90;;;;;;4994190;28;20049;-74
2022/10/23 05:56:35;;;;;;;8.00;4.70;;;10.20;99.90;;;;;;4993877;28;20043;-74
2022/10/23 05:59:01;;;;;;;17.02;7.65;;;10.10;99.90;;;;;;4993406;28;20046;-74
2022/10/23 06:01:26;;;;;;;12.57;7.20;;;10.10;99.90;;;;;;4992920;28;20038;-74
2022/10/23 06:03:52;;;;;;;8.85;6.70;;;10.00;99.90;;;;;;4991922;28;20093;-74
2022/10/23 06:06:18;;;;;;;9.18;5.53;;;10.10;99.90;;;;;;4993746;28;20480;-74
2022/10/23 06:08:43;;;;;;;6.07;4.53;;;10.00;99.90;;;;;;5008802;28;20054;-74
2022/10/23 06:11:12;;;;;;;6.53;4.78;;;10.00;99.90;;;;;;4993554;28;20419;-74
2022/10/23 06:13:38;;;;;;;6.13;4.38;;;10.00;99.90;;;;;;4977556;28;20057;-74
2022/10/23 06:16:14;;;;;;;6.40;4.55;;;10.10;99.90;;;;;;4994103;28;20042;-74
2022/10/23 06:18:40;;;;;;;6.25;4.25;;;10.10;99.90;;;;;;4985818;28;20054;-74
2022/10/23 06:21:06;;;;;;;7.97;5.15;;;10.10;99.90;;;;;;4992628;28;20551;-74
2022/10/23 06:23:33;;;;;;;5.93;4.32;;;10.10;99.90;;;;;;4993032;28;20049;-74
2022/10/23 06:26:00;;;;;;;6.90;5.05;;;10.10;99.90;;;;;;4993161;28;20396;-74
2022/10/23 06:28:26;;;;;;;8.27;4.95;;;10.10;99.90;;;;;;4993119;28;20502;-74
2022/10/23 06:30:51;;;;;;;7.22;4.88;;;10.10;99.90;;;;;;4994676;28;20061;-74
2022/10/23 06:33:17;;;;;;;9.05;5.07;;;10.10;99.90;;;;;;4995302;28;20041;-74
2022/10/23 06:35:43;;;;;;;9.50;5.18;;;10.20;99.90;;;;;;5012866;28;20049;-74
2022/10/23 06:38:09;;;;;;;6.45;4.10;;;10.20;99.90;;;;;;5012966;28;20089;-75
2022/10/23 06:40:35;;;;;;;6.97;4.75;;;10.20;99.90;;;;;;5012694;28;20141;-74
2022/10/23 06:43:02;;;;;;;6.65;4.63;;;10.20;99.90;;;;;;5012715;28;20042;-74
2022/10/23 06:45:28;;;;;;;6.28;4.30;;;10.20;99.90;;;;;;5012100;28;20116;-74
2022/10/23 06:47:54;;;;;;;7.70;4.38;;;10.20;99.90;;;;;;5015434;28;20096;-73
2022/10/23 06:50:20;;;;;;;7.97;4.90;;;10.50;99.90;;;;;;5022275;28;20494;-74
2022/10/23 06:52:46;;;;;;;6.85;4.45;;;10.30;99.90;;;;;;5021096;28;20054;-73
2022/10/23 06:55:12;;;;;;;7.75;4.63;;;10.30;99.90;;;;;;5012320;28;20050;-73
2022/10/23 06:57:37;;;;;;;7.68;4.05;;;10.30;99.90;;;;;;5012277;28;20052;-66
2022/10/23 07:00:04;;;;;;;5.57;4.15;;;10.30;99.90;;;;;;4991599;28;20049;-67
2022/10/23 07:02:29;;;;;;;6.20;4.30;;;10.30;99.90;;;;;;5012204;28;20045;-66
2022/10/23 07:04:55;;;;;;;6.45;4.25;;;10.30;99.90;;;;;;5012329;28;20053;-66
2022/10/23 07:07:21;;;;;;;8.02;4.72;;;10.30;99.90;;;;;;5011899;28;20077;-66
2022/10/23 07:09:46;;;;;;;6.80;4.60;;;10.40;99.90;;;;;;5011872;28;20050;-66
2022/10/23 07:12:12;;;;;;;5.85;4.30;;;10.40;99.90;;;;;;5012033;28;20137;-66
2022/10/23 07:14:38;;;;;;;7.53;4.50;;;10.40;99.90;;;;;;5023423;28;20071;-67
2022/10/23 07:17:03;;;;;;;5.97;4.55;;;10.50;99.90;;;;;;5019912;28;20425;-67
2022/10/23 07:19:29;;;;;;;8.23;4.70;;;10.60;99.90;;;;;;5004023;28;20157;-66
2022/10/23 07:21:55;;;;;;;5.88;4.53;;;10.50;99.90;;;;;;5018297;28;20057;-66
2022/10/23 07:24:20;;;;;;;7.95;4.05;;;10.50;99.90;;;;;;5016842;28;20124;-67
2022/10/23 07:26:46;;;;;;;6.60;4.20;;;10.50;99.90;;;;;;5023393;28;20099;-66
2022/10/23 07:29:12;;;;;;;5.65;4.38;;;10.50;99.90;;;;;;5023758;28;20085;-66
2022/10/23 07:31:38;;;;;;;5.93;4.75;;;10.50;99.90;;;;;;5021807;28;20064;-65
2022/10/23 07:34:05;;;;;;;6.97;4.30;;;10.60;99.90;;;;;;5014731;28;20091;-66
2022/10/23 07:36:31;;;;;;;8.52;5.05;;;10.60;99.90;;;;;;4990822;28;20089;-66
2022/10/23 07:38:57;;;;;;;5.68;4.43;;;10.60;99.90;;;;;;5014288;28;20045;-66
2022/10/23 07:41:22;;;;;;;6.07;4.47;;;10.60;99.90;;;;;;5013081;28;20414;-66
2022/10/23 07:43:48;;;;;;;9.52;4.75;;;10.70;99.90;;;;;;5011100;28;20049;-66
2022/10/23 07:46:14;;;;;;;8.05;4.38;;;10.70;99.90;;;;;;5010745;28;20124;-66
2022/10/23 07:48:39;;;;;;;6.90;4.82;;;10.80;99.90;;;;;;5016242;28;20494;-66
2022/10/23 07:51:12;;;;;;;7.60;4.43;;;10.80;99.90;;;;;;5008130;28;20053;-67
2022/10/23 07:53:38;;;;;;;8.15;4.85;;;10.90;99.90;;;;;;5001942;28;20046;-67
2022/10/23 07:56:14;;;;;;;5.82;4.15;;;10.90;99.90;;;;;;5013494;28;20048;-67
2022/10/23 07:58:40;;;;;;;;;;;11.00;99.90;;;;;;5016311;28;20049;-67
2022/10/23 08:01:15;;;;;;;7.37;4.30;;;11.00;99.90;;;;;;5005835;28;19925;-67
2022/10/23 08:03:40;;;;;;;6.50;4.32;;;11.10;99.90;;;;;;5012401;28;20053;-67
2022/10/23 08:06:06;;;;;;;7.57;4.60;;;11.10;99.90;;;;;;5030150;28;20099;-67
2022/10/23 08:08:32;;;;;;;6.80;4.22;;;11.10;99.90;;;;;;5004708;28;20041;-67
2022/10/23 08:10:57;;;;;;;7.35;4.60;;;11.20;99.90;;;;;;5007803;28;20061;-67
2022/10/23 08:13:23;;;;;;;6.35;4.40;;;11.30;99.90;;;;;;5030229;28;20049;-67
2022/10/23 08:15:50;;;;;;;9.32;4.93;;;11.40;99.90;;;;;;5011713;28;20049;-67
2022/10/23 08:18:16;;;;;;;6.32;4.60;;;11.40;99.90;;;;;;4994626;28;20042;-67
2022/10/23 08:20:44;;;;;;;7.30;4.35;;;11.50;99.90;;;;;;5030780;28;20041;-68
2022/10/23 08:23:15;;;;;;;7.07;5.07;;;11.50;99.90;;;;;;5030638;28;20127;-67
2022/10/23 08:25:41;;;;;;;7.22;4.38;;;11.60;99.90;;;;;;5029845;28;20059;-67
2022/10/23 08:28:08;;;;;;;6.35;4.38;;;11.60;99.90;;;;;;5003532;28;20041;-67
2022/10/23 08:30:34;;;;;;;7.72;4.28;;;11.60;99.90;;;;;;5024827;28;20538;-67
2022/10/23 08:33:03;;;;;;;7.32;4.60;;;11.70;99.90;;;;;;5030169;28;20057;-68
2022/10/23 08:35:28;;;;;;;6.22;4.05;;;11.80;99.90;;;;;;5024613;28;20132;-67
2022/10/23 08:37:54;;;;;;;7.80;4.68;;;11.90;99.90;;;;;;5030015;28;20132;-68
2022/10/23 08:40:24;;;;;;;6.43;4.15;;;11.90;99.90;;;;;;5019787;28;20383;-68
2022/10/23 08:43:17;;;;;;;6.88;4.05;;;12.00;99.90;;;;;;5022421;28;20502;-68
2022/10/23 08:45:54;;;;;;;6.82;4.40;;;12.00;99.90;;;;;;5029986;28;20045;-69
2022/10/23 08:48:47;;;;;;;6.82;4.07;;;12.10;99.90;;;;;;5028664;28;20053;-69
2022/10/23 08:51:24;;;;;;;7.15;4.18;;;12.10;99.90;;;;;;5020011;28;20068;-69
2022/10/23 08:53:54;;;;;;;7.18;4.50;;;12.20;99.90;;;;;;5032588;28;20498;-68
2022/10/23 08:56:40;;;;;;;8.80;4.18;;;12.30;99.90;;;;;;5022072;28;20054;-68
2022/10/23 08:59:25;;;;;;;7.60;3.83;;;12.30;99.90;;;;;;5010317;28;20099;-67
2022/10/23 09:02:01;;;;;;;6.80;4.10;;;12.40;99.90;;;;;;5019056;28;20109;-67
2022/10/23 09:04:27;;;;;;;4.38;3.67;;;12.60;99.90;;;;;;5021917;28;20450;-67
2022/10/23 09:07:14;;;;;;;6.28;4.03;;;12.60;99.90;;;;;;5030794;28;20112;-67
2022/10/23 09:10:17;;;;;;;6.93;4.07;;;12.70;99.90;;;;;;5024238;28;20103;-67
2022/10/23 09:12:42;;;;;;;6.38;3.83;;;12.80;99.90;;;;;;5004791;28;20053;-67
2022/10/23 09:15:23;;;;;;;6.43;3.83;;;12.90;99.90;;;;;;5027957;28;20052;-67
2022/10/23 09:17:58;;;;;;;8.93;4.00;;;12.90;99.90;;;;;;5027636;28;20053;-67
2022/10/23 09:20:33;;;;;;;6.30;3.30;;;12.90;99.90;;;;;;5034040;28;20046;-67
2022/10/23 09:23:13;;;;;;;7.22;4.00;;;13.00;99.90;;;;;;5016125;28;20056;-67
2022/10/23 09:25:40;;;;;;;8.35;3.75;;;13.00;99.90;;;;;;5033006;28;20107;-67
2022/10/23 09:28:12;;;;;;;6.55;4.10;;;13.10;99.90;;;;;;5024538;28;20050;-67
2022/10/23 09:30:40;;;;;;;6.65;3.90;;;13.20;99.90;;;;;;5023145;28;20057;-65
2022/10/23 09:33:13;;;;;;;6.63;3.53;;;13.20;99.90;;;;;;5032968;28;20164;-67
2022/10/23 09:35:52;;;;;;;5.93;3.38;;;13.30;99.90;;;;;;5015424;28;20775;-67
2022/10/23 09:38:33;;;;;;;5.15;3.60;;;13.30;99.90;;;;;;5009947;28;20175;-66
2022/10/23 09:41:21;;;;;;;5.25;3.50;;;13.40;99.90;;;;;;5033448;28;20049;-66
2022/10/23 09:43:58;;;;;;;5.60;3.67;;;13.50;99.90;;;;;;5031774;28;20144;-68
2022/10/23 09:46:23;;;;;;;6.85;4.35;;;13.50;99.90;;;;;;5030575;28;20045;-66
2022/10/23 09:48:57;;;;;;;5.85;3.35;;;13.60;99.90;;;;;;5015624;28;20109;-66
2022/10/23 09:51:23;;;;;;;4.82;3.63;;;13.70;99.90;;;;;;5033513;28;20037;-67
2022/10/23 09:53:57;;;;;;;5.05;3.50;;;13.70;99.90;;;;;;5032927;28;20572;-66
2022/10/23 09:56:23;;;;;;;7.15;3.75;;;13.80;99.90;;;;;;5015315;28;20088;-66
2022/10/23 09:59:05;;;;;;;6.28;3.75;;;13.80;99.90;;;;;;5018848;28;20525;-66
2022/10/23 10:01:43;;;;;;;8.15;3.35;;;13.90;99.90;;;;;;5006123;28;20049;-66
2022/10/23 10:04:09;;;;;;;5.85;3.50;;;14.00;99.90;;;;;;5032299;28;20537;-66
2022/10/23 10:06:35;;;;;;;6.03;3.90;;;14.10;99.90;;;;;;5033268;28;20100;-66
2022/10/23 10:09:12;;;;;;;5.95;3.25;;;14.10;99.90;;;;;;5015340;28;20568;-66
2022/10/23 10:11:53;;;;;;;6.93;3.47;;;14.20;99.90;;;;;;5033108;28;20057;-66
2022/10/23 10:14:41;;;;;;;4.72;3.20;;;14.30;99.90;;;;;;4988816;28;20041;-66
2022/10/23 10:17:44;;;;;;;5.22;3.35;;;14.40;99.90;;;;;;5021035;28;20055;-66
2022/10/23 10:21:09;;;;;;;6.95;3.20;;;14.50;99.90;;;;;;5016542;28;20054;-66
2022/10/23 10:23:59;;;;;;;6.85;3.20;;;14.50;99.90;;;;;;4970728;28;20065;-66
2022/10/23 10:26:39;;;;;;;5.55;2.78;;;14.50;99.90;;;;;;4955294;28;20459;-66
2022/10/23 10:29:29;;;;;;;4.72;2.95;;;14.50;99.90;;;;;;5014063;28;20100;-66
2022/10/23 10:32:04;;;;;;;4.63;2.97;;;14.60;99.90;;;;;;5001035;28;20061;-66
2022/10/23 10:35:01;;;;;;;4.65;2.90;;;14.60;99.90;;;;;;5007260;28;20517;-66
2022/10/23 10:38:14;;;;;;;5.00;3.45;;;14.70;99.90;;;;;;5004250;28;20050;-66
2022/10/23 10:40:46;;;;;;;5.03;3.00;;;14.70;99.90;;;;;;5012710;28;20100;-66
2022/10/23 10:43:40;;;;;;;4.53;3.20;;;14.70;99.90;;;;;;5017141;28;20152;-66
2022/10/23 10:46:13;;;;;;;4.68;2.88;;;14.80;99.90;;;;;;5012811;28;20049;-66
2022/10/23 10:48:48;;;;;;;6.70;3.25;;;14.80;99.90;;;;;;5012717;28;20442;-66
2022/10/23 10:51:43;;;;;;;5.60;2.90;;;14.80;99.90;;;;;;5027670;28;20375;-65
2022/10/23 10:54:24;;;;;;;6.07;3.30;;;14.80;99.90;;;;;;5025721;28;20092;-66
2022/10/23 10:56:50;;;;;;;5.68;3.20;;;14.80;99.90;;;;;;5013966;28;20506;-67
2022/10/23 10:59:18;;;;;;;6.35;3.00;;;14.80;99.90;;;;;;5016319;28;20088;-66
2022/10/23 11:02:17;;;;;;;4.70;2.97;;;14.90;99.90;;;;;;5010713;28;20077;-66
2022/10/23 11:04:53;;;;;;;5.63;2.97;;;14.90;99.90;;;;;;5014961;28;20057;-66
2022/10/23 11:07:24;;;;;;;4.82;2.67;;;14.90;99.90;;;;;;5012463;28;20042;-65
2022/10/23 11:09:50;;;;;;;4.50;2.78;;;14.90;99.90;;;;;;5029419;28;20053;-65
2022/10/23 11:12:22;;;;;;;5.53;2.85;;;14.90;99.90;;;;;;5031605;28;20494;-66
2022/10/23 11:14:49;;;;;;;4.15;2.60;;;14.90;99.90;;;;;;5024443;28;20076;-65
2022/10/23 11:17:34;;;;;;;5.03;2.80;;;14.90;99.90;;;;;;5030478;28;20037;-66
2022/10/23 11:20:22;;;;;;;6.05;3.05;;;14.90;99.90;;;;;;5031781;28;20056;-66
2022/10/23 11:23:17;;;;;;;5.78;2.90;;;14.90;99.90;;;;;;5014100;28;20057;-66
2022/10/23 11:26:11;;;;;;;6.00;2.70;;;14.90;99.90;;;;;;4978918;28;20502;-66
2022/10/23 11:29:07;;;;;;;5.10;3.05;;;14.90;99.90;;;;;;5007309;28;20045;-66
2022/10/23 11:31:39;;;;;;;6.00;2.72;;;14.90;99.90;;;;;;5010854;28;20068;-67
2022/10/23 11:34:11;;;;;;;5.78;2.80;;;14.90;99.90;;;;;;5011563;28;20179;-67
2022/10/23 11:36:54;;;;;;;4.05;2.53;;;14.90;99.90;;;;;;5010471;28;20107;-67
2022/10/23 11:39:28;;;;;;;5.78;3.03;;;14.90;99.90;;;;;;5009490;28;20042;-66
2022/10/23 11:42:05;;;;;;;4.22;2.65;;;14.90;99.90;;;;;;5008230;28;20045;-82
2022/10/23 11:44:33;;;;;;;4.13;2.70;;;14.90;99.90;;;;;;5010996;28;20069;-72
2022/10/23 11:47:05;;;;;;;4.20;2.65;;;14.90;99.90;;;;;;5013531;28;20050;-72
2022/10/23 11:49:31;;;;;;;6.28;2.78;;;15.00;99.90;;;;;;5014957;28;20049;-72
2022/10/23 11:52:01;;;;;;;7.30;3.47;;;15.00;99.90;;;;;;5013552;28;20057;-71
2022/10/23 11:54:27;;;;;;;3.75;2.70;;;15.10;99.90;;;;;;5014690;28;20037;-72
2022/10/23 11:57:14;;;;;;;4.97;2.63;;;15.10;99.90;;;;;;4990846;28;20415;-71
2022/10/23 11:59:46;;;;;;;4.82;2.50;;;15.10;99.90;;;;;;4993082;28;20551;-71
2022/10/23 12:02:38;;;;;;;5.07;2.72;;;15.20;99.90;;;;;;5013067;28;20042;-72
2022/10/23 12:05:08;;;;;;;4.65;2.45;;;15.20;99.90;;;;;;5012531;28;20119;-72
2022/10/23 12:07:39;;;;;;;4.85;2.88;;;15.20;99.90;;;;;;5017411;28;20044;-72
2022/10/23 12:10:16;;;;;;;8.55;3.10;;;15.20;99.90;;;;;;5026971;28;20120;-72
2022/10/23 12:12:42;;;;;;;5.25;2.58;;;15.30;99.90;;;;;;5023575;28;20045;-73
2022/10/23 12:15:10;;;;;;;4.25;2.40;;;15.30;99.90;;;;;;5021593;28;20402;-72
2022/10/23 12:17:38;;;;;;;6.18;3.10;;;15.30;99.90;;;;;;5028107;28;20047;-72
2022/10/23 12:20:07;;;;;;;4.47;2.40;;;15.30;99.90;;;;;;5030680;28;20053;-72
2022/10/23 12:23:00;;;;;;;4.07;2.28;;;15.40;99.90;;;;;;5025431;28;20520;-73
2022/10/23 12:25:59;;;;;;;4.85;2.42;;;15.40;99.90;;;;;;5030938;28;20049;-72
2022/10/23 12:28:36;;;;;;;5.65;2.30;;;15.40;99.90;;;;;;5032262;28;20520;-72
2022/10/23 12:31:20;;;;;;;7.90;2.40;;;15.50;99.90;;;;;;5033950;28;20050;-72
2022/10/23 12:34:04;;;;;;;3.85;2.03;;;15.50;99.90;;;;;;5034844;28;20049;-73
2022/10/23 12:36:33;;;;;;;4.53;2.13;;;15.50;99.90;;;;;;5034492;28;20045;-73
2022/10/23 12:38:59;;;;;;;4.68;2.45;;;15.50;99.90;;;;;;5016918;28;20410;-74
2022/10/23 12:41:27;;;;;;;5.55;2.75;;;15.50;99.90;;;;;;5026885;28;20045;-72
2022/10/23 12:44:02;;;;;;;4.05;2.47;;;15.50;99.90;;;;;;5014460;28;20054;-73
2022/10/23 12:46:33;;;;;;;5.55;2.80;;;15.60;99.90;;;;;;4995251;28;20041;-72
2022/10/23 12:49:02;;;;;;;4.50;2.30;;;15.60;99.90;;;;;;5014369;28;20049;-73
2022/10/23 12:51:33;;;;;;;5.28;2.47;;;15.60;99.90;;;;;;5013802;28;20046;-79
2022/10/23 12:54:00;;;;;;;8.23;5.35;;;15.70;99.90;;;;;;5015564;28;20209;-72
2022/10/23 12:56:32;;;;;;;3.80;2.13;;;15.70;99.90;;;;;;5013430;28;20517;-72
2022/10/23 12:59:01;;;;;;;5.22;2.47;;;15.70;99.90;;;;;;5014295;28;20042;-72
2022/10/23 13:01:33;;;;;;;3.30;2.20;;;15.60;99.90;;;;;;4996543;28;20137;-73
2022/10/23 13:04:30;;;;;;;5.53;3.55;;;15.70;99.90;;;;;;5014827;28;20434;-72
2022/10/23 13:06:57;;;;;;;6.88;2.45;;;15.60;99.90;;;;;;5015048;28;20120;-72